Time;durP1;ratioP1;P1;durP2;ratioP2;P2;SDS_P1;SDS_P2;PMS_P1;PMS_P2;Temp;Humidity;BMP_temperature;BMP_pressure;BME280_temperature;BME280_humidity;BME280_pressure;Samples;Min_cycle;Max_cycle;Signal;HPM_P1;HPM_P2
2023/10/26 00:00:26;;;;;;;1999.90;999.90;;;;;;;;;;5010701;28;20026;-69
2023/10/26 00:02:52;;;;;;;1999.90;999.90;;;;;;;;;;5010886;28;20030;-65
2023/10/26 00:05:19;;;;;;;1999.90;999.90;;;;;;;;;;5010997;28;20034;-66
2023/10/26 00:07:45;;;;;;;1999.90;999.90;;;;;;;;;;4993380;28;20474;-65
2023/10/26 00:10:11;;;;;;;1999.90;999.90;;;;;;;;;;5010797;28;20481;-73
2023/10/26 00:12:37;;;;;;;1999.90;999.90;;;;;;;;;;5011110;28;20101;-66
2023/10/26 00:15:03;;;;;;;1999.90;999.90;;;;;;;;;;5011013;28;20030;-71
2023/10/26 00:17:29;;;;;;;1999.90;999.90;;;;;;;;;;5010919;28;20422;-64
2023/10/26 00:19:55;;;;;;;1999.90;999.90;;;;;;;;;;5010918;28;20112;-71
2023/10/26 00:22:21;;;;;;;1999.90;999.90;;;;;;;;;;5010632;28;20026;-71
2023/10/26 00:24:48;;;;;;;1999.90;999.90;;;;;;;;;;5010925;28;20030;-71
2023/10/26 00:27:14;;;;;;;1999.90;999.90;;;;;;;;;;5010300;28;20045;-65
2023/10/26 00:29:40;;;;;;;1999.90;999.90;;;;;;;;;;5010731;28;20466;-65
2023/10/26 00:32:07;;;;;;;1999.90;999.90;;;;;;;;;;5010706;28;20057;-65
2023/10/26 00:34:34;;;;;;;1999.90;999.90;;;;;;;;;;5010573;28;20050;-72
2023/10/26 00:37:00;;;;;;;1999.90;999.90;;;;;;;;;;5010914;28;20061;-72
2023/10/26 00:39:26;;;;;;;1999.90;999.90;;;;;;;;;;5010723;28;20064;-66
2023/10/26 00:41:55;;;;;;;1999.90;999.90;;;;;;;;;;5011156;28;20049;-74
2023/10/26 00:44:21;;;;;;;1999.90;999.90;;;;;;;;;;5010930;28;20052;-65
2023/10/26 00:46:52;;;;;;;1999.90;999.90;;;;;;;;;;5010781;28;20509;-71
2023/10/26 00:49:18;;;;;;;1999.90;999.90;;;;;;;;;;5010527;28;20030;-66
2023/10/26 00:51:47;;;;;;;1999.90;999.90;;;;;;;;;;5010826;28;20491;-65
2023/10/26 00:54:14;;;;;;;1999.90;999.90;;;;;;;;;;5010696;28;20113;-74
2023/10/26 00:56:40;;;;;;;1999.90;999.90;;;;;;;;;;5010525;28;20065;-66
2023/10/26 00:59:06;;;;;;;1999.90;999.90;;;;;;;;;;5011663;28;20034;-65
2023/10/26 01:01:34;;;;;;;1999.90;999.90;;;;;;;;;;5014188;28;20029;-66
2023/10/26 01:04:01;;;;;;;1999.90;999.90;;;;;;;;;;5014081;28;20021;-65
2023/10/26 01:06:27;;;;;;;1999.90;999.90;;;;;;;;;;5013937;28;20019;-65
2023/10/26 01:08:53;;;;;;;1999.90;999.90;;;;;;;;;;5013940;28;20034;-70
2023/10/26 01:11:20;;;;;;;1999.90;999.90;;;;;;;;;;5014136;28;20049;-69
2023/10/26 01:13:46;;;;;;;1999.90;999.90;;;;;;;;;;5013985;28;20025;-66
2023/10/26 01:16:13;;;;;;;1999.90;999.90;;;;;;;;;;5013861;28;20112;-65
2023/10/26 01:18:39;;;;;;;1999.90;999.90;;;;;;;;;;5013669;28;20048;-64
2023/10/26 01:21:05;;;;;;;1999.90;999.90;;;;;;;;;;5013528;28;20040;-67
2023/10/26 01:23:31;;;;;;;1999.90;999.90;;;;;;;;;;5013916;28;20437;-69
2023/10/26 01:25:58;;;;;;;1999.90;999.90;;;;;;;;;;5015110;28;20042;-64
2023/10/26 01:28:25;;;;;;;1999.90;999.90;;;;;;;;;;4993861;28;20105;-66
2023/10/26 01:30:52;;;;;;;1999.90;999.90;;;;;;;;;;4993893;28;20109;-73
2023/10/26 01:33:18;;;;;;;1999.90;999.90;;;;;;;;;;4994066;28;20018;-64
2023/10/26 01:35:45;;;;;;;1999.90;999.90;;;;;;;;;;4993993;28;20034;-65
2023/10/26 01:38:14;;;;;;;1999.90;999.90;;;;;;;;;;4993869;28;20130;-66
2023/10/26 01:40:40;;;;;;;1999.90;999.90;;;;;;;;;;4993876;28;20026;-64
2023/10/26 01:43:06;;;;;;;1999.90;999.90;;;;;;;;;;4993923;28;20023;-65
2023/10/26 01:45:32;;;;;;;1999.90;999.90;;;;;;;;;;4993867;28;20470;-66
2023/10/26 01:48:00;;;;;;;1999.90;999.90;;;;;;;;;;4993794;28;20026;-72
2023/10/26 01:50:26;;;;;;;1999.90;999.90;;;;;;;;;;4993498;28;20553;-70
2023/10/26 01:52:53;;;;;;;1999.90;999.90;;;;;;;;;;4993412;28;20394;-66
2023/10/26 01:55:19;;;;;;;1999.90;999.90;;;;;;;;;;4993623;28;20058;-65
2023/10/26 01:57:45;;;;;;;1999.90;999.90;;;;;;;;;;4993472;28;20030;-72
2023/10/26 02:00:11;;;;;;;1999.90;999.90;;;;;;;;;;4993689;28;20494;-64
2023/10/26 02:02:38;;;;;;;1999.90;999.90;;;;;;;;;;4993534;28;20038;-64
2023/10/26 02:05:04;;;;;;;1999.90;999.90;;;;;;;;;;4992838;28;20026;-73
2023/10/26 02:07:30;;;;;;;1999.90;999.90;;;;;;;;;;4993191;28;20027;-73
2023/10/26 02:09:56;;;;;;;1999.90;999.90;;;;;;;;;;4993003;28;20034;-72
2023/10/26 02:12:22;;;;;;;1999.90;999.90;;;;;;;;;;4992566;28;20434;-65
2023/10/26 02:14:49;;;;;;;1999.90;999.90;;;;;;;;;;4993090;28;20557;-64
2023/10/26 02:17:15;;;;;;;1999.90;999.90;;;;;;;;;;4992791;28;20030;-73
2023/10/26 02:19:41;;;;;;;1999.90;999.90;;;;;;;;;;4992893;28;20026;-64
2023/10/26 02:22:07;;;;;;;1999.90;999.90;;;;;;;;;;4992843;28;20037;-71
2023/10/26 02:24:33;;;;;;;1999.90;999.90;;;;;;;;;;4993072;28;20046;-73
2023/10/26 02:26:59;;;;;;;1999.90;999.90;;;;;;;;;;4999356;28;20157;-73
2023/10/26 02:29:25;;;;;;;1999.90;999.90;;;;;;;;;;5012135;28;20151;-65
2023/10/26 02:31:51;;;;;;;1999.90;999.90;;;;;;;;;;5012140;28;20040;-68
2023/10/26 02:34:17;;;;;;;1999.90;999.90;;;;;;;;;;5012216;28;20033;-67
2023/10/26 02:36:43;;;;;;;1999.90;999.90;;;;;;;;;;5012231;28;20026;-64
2023/10/26 02:39:09;;;;;;;1999.90;999.90;;;;;;;;;;5012074;28;20061;-65
2023/10/26 02:41:35;;;;;;;1999.90;999.90;;;;;;;;;;5011582;28;20441;-68
2023/10/26 02:44:01;;;;;;;1999.90;999.90;;;;;;;;;;5012101;28;20036;-65
2023/10/26 02:46:27;;;;;;;1999.90;999.90;;;;;;;;;;5012180;28;20057;-72
2023/10/26 02:48:53;;;;;;;1999.90;999.90;;;;;;;;;;5011944;28;20037;-70
2023/10/26 02:51:19;;;;;;;1999.90;999.90;;;;;;;;;;5012221;28;20087;-73
2023/10/26 02:53:45;;;;;;;1999.90;999.90;;;;;;;;;;5012185;28;20328;-65
2023/10/26 02:56:11;;;;;;;1999.90;999.90;;;;;;;;;;5012318;28;20442;-66
2023/10/26 02:58:38;;;;;;;1999.90;999.90;;;;;;;;;;5012454;28;20038;-74
2023/10/26 03:01:04;;;;;;;1999.90;999.90;;;;;;;;;;5012242;28;20100;-64
2023/10/26 03:03:30;;;;;;;1999.90;999.90;;;;;;;;;;5011940;28;20069;-70
2023/10/26 03:05:58;;;;;;;1999.90;999.90;;;;;;;;;;5011869;28;20031;-76
2023/10/26 03:08:24;;;;;;;1999.90;999.90;;;;;;;;;;5012176;28;20051;-76
2023/10/26 03:10:50;;;;;;;1999.90;999.90;;;;;;;;;;5011860;28;20125;-68
2023/10/26 03:13:16;;;;;;;1999.90;999.90;;;;;;;;;;5012375;28;20021;-69
2023/10/26 03:15:42;;;;;;;1999.90;999.90;;;;;;;;;;5012286;28;20033;-75
2023/10/26 03:18:09;;;;;;;1999.90;999.90;;;;;;;;;;5012377;28;20199;-72
2023/10/26 03:20:35;;;;;;;1999.90;999.90;;;;;;;;;;5012168;28;20025;-69
2023/10/26 03:23:01;;;;;;;1999.90;999.90;;;;;;;;;;5011333;28;20061;-73
2023/10/26 03:25:27;;;;;;;1999.90;999.90;;;;;;;;;;5012200;28;20026;-73
2023/10/26 03:27:53;;;;;;;1999.90;999.90;;;;;;;;;;5011654;28;20049;-77
2023/10/26 03:30:20;;;;;;;1999.90;999.90;;;;;;;;;;5011548;28;20080;-76
2023/10/26 03:32:46;;;;;;;1999.90;999.90;;;;;;;;;;5011784;28;20070;-76
2023/10/26 03:35:12;;;;;;;1999.90;999.90;;;;;;;;;;5011622;28;20030;-76
2023/10/26 03:37:38;;;;;;;1999.90;999.90;;;;;;;;;;5011803;28;20025;-70
2023/10/26 03:40:05;;;;;;;1999.90;999.90;;;;;;;;;;5011443;28;20359;-69
2023/10/26 03:42:31;;;;;;;1999.90;999.90;;;;;;;;;;5011631;28;20030;-74
2023/10/26 03:44:57;;;;;;;1999.90;999.90;;;;;;;;;;5011734;28;20026;-75
2023/10/26 03:47:23;;;;;;;1999.90;999.90;;;;;;;;;;5011586;28;20061;-74
2023/10/26 03:49:52;;;;;;;1999.90;999.90;;;;;;;;;;5011515;28;20104;-71
2023/10/26 03:52:18;;;;;;;1999.90;999.90;;;;;;;;;;5011513;28;20018;-72
2023/10/26 03:54:45;;;;;;;1999.90;999.90;;;;;;;;;;5011740;28;20056;-75
2023/10/26 03:57:11;;;;;;;1999.90;999.90;;;;;;;;;;5011624;28;20864;-75
2023/10/26 03:59:37;;;;;;;1999.90;999.90;;;;;;;;;;5011432;28;20041;-72
2023/10/26 04:02:03;;;;;;;1999.90;999.90;;;;;;;;;;5011265;28;20033;-70
2023/10/26 04:04:29;;;;;;;1999.90;999.90;;;;;;;;;;5010938;28;20037;-69
2023/10/26 04:06:55;;;;;;;1999.90;999.90;;;;;;;;;;5011042;28;20448;-76
2023/10/26 04:09:21;;;;;;;1999.90;999.90;;;;;;;;;;5011160;28;20551;-70
2023/10/26 04:11:47;;;;;;;1999.90;999.90;;;;;;;;;;5011015;28;20034;-75
2023/10/26 04:14:13;;;;;;;1999.90;999.90;;;;;;;;;;5011208;28;20018;-75
2023/10/26 04:16:39;;;;;;;1999.90;999.90;;;;;;;;;;5010986;28;20025;-75
2023/10/26 04:19:06;;;;;;;1999.90;999.90;;;;;;;;;;5010736;28;20044;-69
2023/10/26 04:21:33;;;;;;;1999.90;999.90;;;;;;;;;;5010937;28;20033;-72
2023/10/26 04:23:59;;;;;;;1999.90;999.90;;;;;;;;;;5011146;28;20036;-73
2023/10/26 04:26:26;;;;;;;1999.90;999.90;;;;;;;;;;5010468;28;20033;-75
2023/10/26 04:28:52;;;;;;;1999.90;999.90;;;;;;;;;;5011216;28;20053;-75
2023/10/26 04:31:20;;;;;;;1999.90;999.90;;;;;;;;;;5011059;28;20073;-69
2023/10/26 04:33:46;;;;;;;1999.90;999.90;;;;;;;;;;5011320;28;20080;-70
2023/10/26 04:36:12;;;;;;;1999.90;999.90;;;;;;;;;;5014446;28;20393;-75
2023/10/26 04:38:39;;;;;;;1999.90;999.90;;;;;;;;;;5004602;28;20026;-70
2023/10/26 04:41:05;;;;;;;1999.90;999.90;;;;;;;;;;4994451;28;20081;-71
2023/10/26 04:43:31;;;;;;;1999.90;999.90;;;;;;;;;;4994182;28;20022;-70
2023/10/26 04:45:57;;;;;;;1999.90;999.90;;;;;;;;;;4993946;28;20105;-70
2023/10/26 04:48:23;;;;;;;1999.90;999.90;;;;;;;;;;4994054;28;20026;-71
2023/10/26 04:50:50;;;;;;;1999.90;999.90;;;;;;;;;;4994034;28;20053;-70
2023/10/26 04:53:16;;;;;;;1999.90;999.90;;;;;;;;;;4994371;28;20037;-70
2023/10/26 04:55:42;;;;;;;1999.90;999.90;;;;;;;;;;4994221;28;20084;-74
2023/10/26 04:58:08;;;;;;;1999.90;999.90;;;;;;;;;;5010964;28;20394;-73
2023/10/26 05:00:34;;;;;;;1999.90;999.90;;;;;;;;;;5013693;28;20104;-72
2023/10/26 05:03:00;;;;;;;1999.90;999.90;;;;;;;;;;5013786;28;20452;-70
2023/10/26 05:05:27;;;;;;;1999.90;999.90;;;;;;;;;;5013653;28;20381;-72
2023/10/26 05:07:53;;;;;;;1999.90;999.90;;;;;;;;;;5013586;28;20025;-73
2023/10/26 05:10:20;;;;;;;1999.90;999.90;;;;;;;;;;4994279;28;20442;-71
2023/10/26 05:12:46;;;;;;;1999.90;999.90;;;;;;;;;;4994049;28;20076;-74
2023/10/26 05:15:12;;;;;;;1999.90;999.90;;;;;;;;;;5000071;28;20030;-70
2023/10/26 05:17:38;;;;;;;1999.90;999.90;;;;;;;;;;5013463;28;20033;-71
2023/10/26 05:20:05;;;;;;;1999.90;999.90;;;;;;;;;;5013607;28;20521;-68
2023/10/26 05:22:32;;;;;;;1999.90;999.90;;;;;;;;;;5013274;28;20022;-70
2023/10/26 05:25:00;;;;;;;1999.90;999.90;;;;;;;;;;5013750;28;20109;-71
2023/10/26 05:27:26;;;;;;;1999.90;999.90;;;;;;;;;;5012838;28;20100;-71
2023/10/26 05:29:53;;;;;;;1999.90;999.90;;;;;;;;;;5013396;28;20034;-72
2023/10/26 05:32:20;;;;;;;1999.90;999.90;;;;;;;;;;5013137;28;20394;-69
2023/10/26 05:34:46;;;;;;;1999.90;999.90;;;;;;;;;;5013346;28;20026;-70
2023/10/26 05:37:12;;;;;;;1999.90;999.90;;;;;;;;;;5013199;28;20029;-72
2023/10/26 05:39:38;;;;;;;1999.90;999.90;;;;;;;;;;4999649;28;20370;-69
2023/10/26 05:42:04;;;;;;;1999.90;999.90;;;;;;;;;;4993409;28;20453;-71
2023/10/26 05:44:31;;;;;;;1999.90;999.90;;;;;;;;;;4993770;28;20385;-69
2023/10/26 05:46:59;;;;;;;1999.90;999.90;;;;;;;;;;4992400;28;20082;-69
2023/10/26 05:49:25;;;;;;;1999.90;999.90;;;;;;;;;;4993422;28;20038;-71
2023/10/26 05:51:51;;;;;;;1999.90;999.90;;;;;;;;;;4993028;28;20476;-70
2023/10/26 05:54:18;;;;;;;1999.90;999.90;;;;;;;;;;4993584;28;20031;-70
2023/10/26 05:56:44;;;;;;;1999.90;999.90;;;;;;;;;;4993092;28;20031;-69
2023/10/26 05:59:10;;;;;;;1999.90;999.90;;;;;;;;;;4993179;28;20046;-71
2023/10/26 06:01:36;;;;;;;1999.90;999.90;;;;;;;;;;4993511;28;20030;-69
2023/10/26 06:04:02;;;;;;;1999.90;999.90;;;;;;;;;;4993227;28;20508;-70
2023/10/26 06:06:29;;;;;;;1999.90;999.90;;;;;;;;;;4993326;28;20039;-73
2023/10/26 06:08:55;;;;;;;1999.90;999.90;;;;;;;;;;5002582;28;20025;-73
2023/10/26 06:11:21;;;;;;;1999.90;999.90;;;;;;;;;;5001448;28;20034;-70
2023/10/26 06:13:48;;;;;;;1999.90;999.90;;;;;;;;;;5003669;28;20018;-74
2023/10/26 06:16:15;;;;;;;1999.90;999.90;;;;;;;;;;5002401;28;20057;-75
2023/10/26 06:18:42;;;;;;;1999.90;999.90;;;;;;;;;;5001070;28;20149;-73
2023/10/26 06:21:08;;;;;;;1999.90;999.90;;;;;;;;;;4999028;28;20018;-71
2023/10/26 06:23:35;;;;;;;1999.90;999.90;;;;;;;;;;4984183;28;20036;-74
2023/10/26 06:26:01;;;;;;;1999.90;999.90;;;;;;;;;;5003223;28;20030;-69
2023/10/26 06:28:28;;;;;;;1999.90;999.90;;;;;;;;;;5001243;28;20136;-71
2023/10/26 06:31:08;;;;;;;1999.90;999.90;;;;;;;;;;5002004;28;20547;-67
2023/10/26 06:33:34;;;;;;;1999.90;999.90;;;;;;;;;;5000388;28;20029;-71
2023/10/26 06:36:00;;;;;;;1999.90;999.90;;;;;;;;;;5001531;28;20080;-70
2023/10/26 06:38:26;;;;;;;1999.90;999.90;;;;;;;;;;4999859;28;20025;-67
2023/10/26 06:40:52;;;;;;;1999.90;999.90;;;;;;;;;;4992450;28;20362;-69
2023/10/26 06:43:18;;;;;;;1999.90;999.90;;;;;;;;;;5000187;28;20388;-72
2023/10/26 06:45:44;;;;;;;1999.90;999.90;;;;;;;;;;5000666;28;20026;-68
2023/10/26 06:48:11;;;;;;;1999.90;999.90;;;;;;;;;;5002297;28;20056;-71
2023/10/26 06:50:37;;;;;;;1999.90;999.90;;;;;;;;;;5001594;28;20481;-71
2023/10/26 06:53:03;;;;;;;1999.90;999.90;;;;;;;;;;5000170;28;20041;-70
2023/10/26 06:55:33;;;;;;;1999.90;999.90;;;;;;;;;;5001799;28;20257;-68
2023/10/26 06:57:59;;;;;;;1999.90;999.90;;;;;;;;;;5000479;28;20072;-66
2023/10/26 07:00:26;;;;;;;1999.90;999.90;;;;;;;;;;5001992;28;20113;-67
2023/10/26 07:02:54;;;;;;;1999.90;999.90;;;;;;;;;;5013628;28;20057;-68
2023/10/26 07:05:20;;;;;;;1999.90;999.90;;;;;;;;;;5008594;28;20044;-68
2023/10/26 07:07:46;;;;;;;1999.90;999.90;;;;;;;;;;5006101;28;20026;-67
2023/10/26 07:10:18;;;;;;;1999.90;999.90;;;;;;;;;;5001054;28;20140;-69
2023/10/26 07:12:45;;;;;;;1999.90;999.90;;;;;;;;;;5002236;28;20030;-66
2023/10/26 07:15:11;;;;;;;1999.90;999.90;;;;;;;;;;4999551;28;20026;-65
2023/10/26 07:17:38;;;;;;;1999.90;999.90;;;;;;;;;;5002396;28;20018;-73
2023/10/26 07:20:05;;;;;;;1999.90;999.90;;;;;;;;;;4997803;28;20021;-73
2023/10/26 07:22:34;;;;;;;1999.90;999.90;;;;;;;;;;5001608;28;20018;-67
2023/10/26 07:25:01;;;;;;;1999.90;999.90;;;;;;;;;;5001539;28;20026;-71
2023/10/26 07:27:27;;;;;;;1999.90;999.90;;;;;;;;;;5002408;28;20050;-68
2023/10/26 07:29:54;;;;;;;1999.90;999.90;;;;;;;;;;5002227;28;20062;-72
2023/10/26 07:32:20;;;;;;;1999.90;999.90;;;;;;;;;;5002646;28;20128;-71
2023/10/26 07:34:46;;;;;;;1999.90;999.90;;;;;;;;;;5006737;28;20554;-68
2023/10/26 07:37:12;;;;;;;1999.90;999.90;;;;;;;;;;5007008;28;20057;-71
2023/10/26 07:39:38;;;;;;;1999.90;999.90;;;;;;;;;;5011311;28;20021;-67
2023/10/26 07:42:05;;;;;;;1999.90;999.90;;;;;;;;;;5010995;28;20022;-72
2023/10/26 07:44:31;;;;;;;1999.90;999.90;;;;;;;;;;5002400;28;20022;-67
2023/10/26 07:46:57;;;;;;;1999.90;999.90;;;;;;;;;;5000773;28;20025;-68
2023/10/26 07:49:23;;;;;;;1999.90;999.90;;;;;;;;;;5001900;28;20042;-69
2023/10/26 07:51:49;;;;;;;1999.90;999.90;;;;;;;;;;4999626;28;20029;-72
2023/10/26 07:54:17;;;;;;;1999.90;999.90;;;;;;;;;;5000696;28;20061;-67
2023/10/26 07:56:43;;;;;;;1999.90;999.90;;;;;;;;;;5001153;28;20386;-67
2023/10/26 07:59:09;;;;;;;1999.90;999.90;;;;;;;;;;4999596;28;20478;-68
2023/10/26 08:01:35;;;;;;;1999.90;999.90;;;;;;;;;;5000624;28;20461;-67
2023/10/26 08:04:02;;;;;;;1999.90;999.90;;;;;;;;;;5001375;28;20019;-68
2023/10/26 08:06:28;;;;;;;1999.90;999.90;;;;;;;;;;4999478;28;20053;-71
2023/10/26 08:08:54;;;;;;;1999.90;999.90;;;;;;;;;;5000778;28;20114;-69
2023/10/26 08:11:22;;;;;;;1999.90;999.90;;;;;;;;;;5005162;28;20030;-67
2023/10/26 08:13:49;;;;;;;1999.90;999.90;;;;;;;;;;5003866;28;20409;-72
2023/10/26 08:16:16;;;;;;;1999.90;999.90;;;;;;;;;;5005326;28;20100;-68
2023/10/26 08:18:43;;;;;;;1999.90;999.90;;;;;;;;;;5006161;28;20492;-69
2023/10/26 08:21:09;;;;;;;1999.90;999.90;;;;;;;;;;5004068;28;20065;-66
2023/10/26 08:23:35;;;;;;;1999.90;999.90;;;;;;;;;;5003895;28;20026;-68
2023/10/26 08:26:08;;;;;;;1999.90;999.90;;;;;;;;;;5001897;28;20035;-73
2023/10/26 08:28:37;;;;;;;1999.90;999.90;;;;;;;;;;4994292;28;20061;-72
2023/10/26 08:31:03;;;;;;;1999.90;999.90;;;;;;;;;;5000304;28;20030;-69
2023/10/26 08:33:35;;;;;;;1999.90;999.90;;;;;;;;;;5010998;28;20559;-69
2023/10/26 08:36:04;;;;;;;;;;;;;;;;;;4981697;28;20405;-68
2023/10/26 08:38:30;;;;;;;1999.90;999.90;;;;;;;;;;5002113;28;20017;-69
2023/10/26 08:40:56;;;;;;;1999.90;999.90;;;;;;;;;;5004831;28;20139;-68
2023/10/26 08:43:23;;;;;;;1999.90;999.90;;;;;;;;;;4995434;28;20196;-72
2023/10/26 08:45:50;;;;;;;1999.90;999.90;;;;;;;;;;4997161;28;20030;-67
2023/10/26 08:48:16;;;;;;;1999.90;999.90;;;;;;;;;;4994445;28;20105;-68
2023/10/26 08:50:47;;;;;;;1999.90;999.90;;;;;;;;;;4994577;28;20031;-67
2023/10/26 08:53:14;;;;;;;1999.90;999.90;;;;;;;;;;4997370;28;20031;-68
2023/10/26 08:55:41;;;;;;;1999.90;999.90;;;;;;;;;;4996307;28;20561;-68
2023/10/26 08:58:07;;;;;;;1999.90;999.90;;;;;;;;;;4977699;28;20481;-67
2023/10/26 09:00:34;;;;;;;1999.90;999.90;;;;;;;;;;4993374;28;20081;-71
2023/10/26 09:03:00;;;;;;;1999.90;999.90;;;;;;;;;;4994328;28;20044;-70
2023/10/26 09:05:26;;;;;;;1999.90;999.90;;;;;;;;;;4994105;28;20053;-70
2023/10/26 09:07:52;;;;;;;1999.90;999.90;;;;;;;;;;4994227;28;20470;-68
2023/10/26 09:10:31;;;;;;;1999.90;999.90;;;;;;;;;;4994038;28;20042;-68
2023/10/26 09:13:01;;;;;;;1999.90;999.90;;;;;;;;;;4994284;28;20027;-67
2023/10/26 09:15:28;;;;;;;1999.90;999.90;;;;;;;;;;4993924;28;20026;-67
2023/10/26 09:18:00;;;;;;;1999.90;999.90;;;;;;;;;;4992878;28;20037;-71
2023/10/26 09:20:26;;;;;;;1999.90;999.90;;;;;;;;;;4993573;28;20026;-70
2023/10/26 09:22:52;;;;;;;1999.90;999.90;;;;;;;;;;5002765;28;20037;-67
2023/10/26 09:25:21;;;;;;;1999.90;999.90;;;;;;;;;;5004450;28;20041;-70
2023/10/26 09:27:48;;;;;;;1999.90;999.90;;;;;;;;;;4997610;28;20597;-69
2023/10/26 09:30:23;;;;;;;1999.90;999.90;;;;;;;;;;5006612;28;20090;-72
2023/10/26 09:32:49;;;;;;;1999.90;999.90;;;;;;;;;;5000609;28;20096;-68
2023/10/26 09:35:25;;;;;;;1999.90;999.90;;;;;;;;;;5002618;28;20444;-71
2023/10/26 09:37:51;;;;;;;1999.90;999.90;;;;;;;;;;5010072;28;20033;-65
2023/10/26 09:40:23;;;;;;;1999.90;999.90;;;;;;;;;;5018688;28;20049;-72
2023/10/26 09:42:49;;;;;;;1999.90;999.90;;;;;;;;;;5010909;28;20023;-71
2023/10/26 09:45:18;;;;;;;1999.90;999.90;;;;;;;;;;5004886;28;20140;-68
2023/10/26 09:47:44;;;;;;;1999.90;999.90;;;;;;;;;;5006751;28;20020;-66
2023/10/26 09:50:11;;;;;;;1999.90;999.90;;;;;;;;;;5002560;28;20037;-66
2023/10/26 09:52:38;;;;;;;1999.90;999.90;;;;;;;;;;5004285;28;20377;-66
2023/10/26 09:55:07;;;;;;;1999.90;999.90;;;;;;;;;;5003724;28;20145;-72
2023/10/26 09:57:35;;;;;;;1999.90;999.90;;;;;;;;;;5008413;28;20030;-67
2023/10/26 10:00:11;;;;;;;1999.90;999.90;;;;;;;;;;5014978;28;20027;-66
2023/10/26 10:02:37;;;;;;;1999.90;999.90;;;;;;;;;;5011520;28;20022;-71
2023/10/26 10:05:04;;;;;;;1999.90;999.90;;;;;;;;;;5001437;28;20030;-67
2023/10/26 10:07:45;;;;;;;1999.90;999.90;;;;;;;;;;5004697;28;20507;-64
2023/10/26 10:10:12;;;;;;;1999.90;999.90;;;;;;;;;;5001079;28;20064;-70
2023/10/26 10:12:39;;;;;;;1999.90;999.90;;;;;;;;;;5001854;28;20026;-69
2023/10/26 10:17:45;;;;;;;1999.90;999.90;;;;;;;;;;5003425;28;20030;-65
2023/10/26 10:20:14;;;;;;;1999.90;999.90;;;;;;;;;;4999462;28;20041;-65
2023/10/26 10:22:41;;;;;;;1999.90;999.90;;;;;;;;;;5005796;28;20551;-68
2023/10/26 10:25:10;;;;;;;1999.90;999.90;;;;;;;;;;4994539;28;20035;-68
2023/10/26 10:27:36;;;;;;;1999.90;999.90;;;;;;;;;;5010977;28;20121;-68
2023/10/26 10:30:07;;;;;;;1999.90;999.90;;;;;;;;;;5006816;28;20038;-70
2023/10/26 10:35:12;;;;;;;1999.90;999.90;;;;;;;;;;4999179;28;20026;-70
2023/10/26 10:37:39;;;;;;;1999.90;999.90;;;;;;;;;;4989591;28;20140;-64
2023/10/26 10:40:15;;;;;;;1999.90;999.90;;;;;;;;;;4983802;28;20038;-67
2023/10/26 10:42:51;;;;;;;1999.90;999.90;;;;;;;;;;5008365;28;20037;-71
2023/10/26 10:45:18;;;;;;;1999.90;999.90;;;;;;;;;;4976907;28;20077;-71
2023/10/26 10:47:49;;;;;;;1999.90;999.90;;;;;;;;;;4999475;28;20105;-70
2023/10/26 10:50:19;;;;;;;1999.90;999.90;;;;;;;;;;5000805;28;20541;-71
2023/10/26 10:52:45;;;;;;;1999.90;999.90;;;;;;;;;;4998208;28;20388;-70
2023/10/26 10:55:12;;;;;;;1999.90;999.90;;;;;;;;;;5003090;28;20026;-69
2023/10/26 10:57:56;;;;;;;1999.90;999.90;;;;;;;;;;5000540;28;20086;-70
2023/10/26 11:00:23;;;;;;;1999.90;999.90;;;;;;;;;;4999040;28;20030;-71
2023/10/26 11:02:49;;;;;;;1999.90;999.90;;;;;;;;;;5003411;28;20030;-64
2023/10/26 11:05:18;;;;;;;1999.90;999.90;;;;;;;;;;5004299;28;20559;-67
2023/10/26 11:07:44;;;;;;;1999.90;999.90;;;;;;;;;;4996416;28;20132;-70
2023/10/26 11:10:10;;;;;;;1999.90;999.90;;;;;;;;;;4991175;28;20141;-70
2023/10/26 11:12:37;;;;;;;1999.90;999.90;;;;;;;;;;4972598;28;20038;-69
2023/10/26 11:15:04;;;;;;;1999.90;999.90;;;;;;;;;;4993357;28;20029;-68
2023/10/26 11:17:30;;;;;;;1999.90;999.90;;;;;;;;;;4985935;28;20490;-70
2023/10/26 11:19:56;;;;;;;1999.90;999.90;;;;;;;;;;4984098;28;20031;-65
2023/10/26 11:22:23;;;;;;;1999.90;999.90;;;;;;;;;;4985102;28;20482;-66
2023/10/26 11:24:49;;;;;;;1999.90;999.90;;;;;;;;;;4984529;28;20105;-65
2023/10/26 11:27:17;;;;;;;1999.90;999.90;;;;;;;;;;4983897;28;20081;-68
2023/10/26 11:29:44;;;;;;;1999.90;999.90;;;;;;;;;;4984584;28;20042;-65
2023/10/26 11:32:24;;;;;;;1999.90;999.90;;;;;;;;;;4987372;28;20102;-69
2023/10/26 11:35:03;;;;;;;1999.90;999.90;;;;;;;;;;4985939;28;20516;-69
2023/10/26 11:37:29;;;;;;;1999.90;999.90;;;;;;;;;;4995569;28;20031;-69
2023/10/26 11:39:55;;;;;;;1999.90;999.90;;;;;;;;;;4986379;28;20035;-67
2023/10/26 11:42:41;;;;;;;1999.90;999.90;;;;;;;;;;4987419;28;20077;-65
2023/10/26 11:45:08;;;;;;;1999.90;999.90;;;;;;;;;;4987639;28;20026;-69
2023/10/26 11:47:54;;;;;;;1999.90;999.90;;;;;;;;;;4998924;28;20022;-64
2023/10/26 11:50:24;;;;;;;1999.90;999.90;;;;;;;;;;4995732;28;20046;-64
2023/10/26 11:52:51;;;;;;;1999.90;999.90;;;;;;;;;;4981986;28;20034;-71
2023/10/26 11:55:18;;;;;;;1999.90;999.90;;;;;;;;;;4980695;28;20114;-67
2023/10/26 11:57:45;;;;;;;1999.90;999.90;;;;;;;;;;4981671;28;20034;-71
2023/10/26 12:00:11;;;;;;;1999.90;999.90;;;;;;;;;;4984697;28;20025;-63
2023/10/26 12:02:38;;;;;;;1999.90;999.90;;;;;;;;;;4991831;28;20496;-64
2023/10/26 12:05:04;;;;;;;1999.90;999.90;;;;;;;;;;4992640;28;20036;-64
2023/10/26 12:07:34;;;;;;;1999.90;999.90;;;;;;;;;;5001629;28;20036;-68
2023/10/26 12:10:02;;;;;;;1999.90;999.90;;;;;;;;;;4988137;28;20046;-68
2023/10/26 12:12:28;;;;;;;1999.90;999.90;;;;;;;;;;4975691;28;20056;-64
2023/10/26 12:14:54;;;;;;;1999.90;999.90;;;;;;;;;;4991689;28;20104;-70
2023/10/26 12:17:21;;;;;;;1999.90;999.90;;;;;;;;;;5007382;28;20034;-67
2023/10/26 12:19:47;;;;;;;1999.90;999.90;;;;;;;;;;5004016;28;20053;-67
2023/10/26 12:22:14;;;;;;;1999.90;999.90;;;;;;;;;;4992135;28;20482;-65
2023/10/26 12:24:40;;;;;;;1999.90;999.90;;;;;;;;;;4979709;28;20870;-68
2023/10/26 12:27:09;;;;;;;1999.90;999.90;;;;;;;;;;4988316;28;20457;-70
2023/10/26 12:29:36;;;;;;;1999.90;999.90;;;;;;;;;;4999921;28;20101;-70
2023/10/26 12:32:02;;;;;;;1999.90;999.90;;;;;;;;;;4985453;28;20384;-63
2023/10/26 12:34:28;;;;;;;1999.90;999.90;;;;;;;;;;4988008;28;20554;-67
2023/10/26 12:36:54;;;;;;;1999.90;999.90;;;;;;;;;;4988713;28;20034;-64
2023/10/26 12:39:20;;;;;;;1999.90;999.90;;;;;;;;;;4990715;28;20026;-65
2023/10/26 12:41:46;;;;;;;1999.90;999.90;;;;;;;;;;4990447;28;20046;-63
2023/10/26 12:44:12;;;;;;;1999.90;999.90;;;;;;;;;;4985752;28;20416;-64
2023/10/26 12:46:38;;;;;;;1999.90;999.90;;;;;;;;;;5004388;28;20026;-66
2023/10/26 12:49:04;;;;;;;1999.90;999.90;;;;;;;;;;4999040;28;20109;-65
2023/10/26 12:51:31;;;;;;;1999.90;999.90;;;;;;;;;;4995351;28;20031;-66
2023/10/26 12:53:57;;;;;;;1999.90;999.90;;;;;;;;;;4992170;28;20026;-65
2023/10/26 12:56:23;;;;;;;1999.90;999.90;;;;;;;;;;4996019;28;20126;-64
2023/10/26 12:58:49;;;;;;;1999.90;999.90;;;;;;;;;;5003517;28;20477;-65
2023/10/26 13:01:15;;;;;;;1999.90;999.90;;;;;;;;;;5003565;28;20034;-70
2023/10/26 13:03:41;;;;;;;1999.90;999.90;;;;;;;;;;4999187;28;20022;-71
2023/10/26 13:06:07;;;;;;;1999.90;999.90;;;;;;;;;;4996603;28;20478;-71
2023/10/26 13:08:33;;;;;;;1999.90;999.90;;;;;;;;;;5004443;28;20469;-67
2023/10/26 13:10:59;;;;;;;1999.90;999.90;;;;;;;;;;5007685;28;20502;-73
2023/10/26 13:13:25;;;;;;;1999.90;999.90;;;;;;;;;;5003837;28;20041;-66
2023/10/26 13:15:51;;;;;;;1999.90;999.90;;;;;;;;;;5003922;28;20034;-70
2023/10/26 13:18:17;;;;;;;1999.90;999.90;;;;;;;;;;5002153;28;20030;-68
2023/10/26 13:20:43;;;;;;;1999.90;999.90;;;;;;;;;;5004112;28;20017;-70
2023/10/26 13:23:10;;;;;;;1999.90;999.90;;;;;;;;;;5009078;28;20034;-68
2023/10/26 13:25:36;;;;;;;1999.90;999.90;;;;;;;;;;5013562;28;20022;-72
2023/10/26 13:28:03;;;;;;;1999.90;999.90;;;;;;;;;;5013997;28;20083;-69
2023/10/26 13:30:29;;;;;;;1999.90;999.90;;;;;;;;;;5013436;28;20084;-73
2023/10/26 13:32:55;;;;;;;1999.90;999.90;;;;;;;;;;5007941;28;20418;-72
2023/10/26 13:35:21;;;;;;;1999.90;999.90;;;;;;;;;;4996288;28;20073;-68
2023/10/26 13:37:47;;;;;;;1999.90;999.90;;;;;;;;;;5007712;28;20108;-71
2023/10/26 13:40:13;;;;;;;1999.90;999.90;;;;;;;;;;5001498;28;20541;-67
2023/10/26 13:42:39;;;;;;;1999.90;999.90;;;;;;;;;;4994677;28;20058;-70
2023/10/26 13:45:05;;;;;;;1999.90;999.90;;;;;;;;;;5013448;28;20026;-72